sensor_id;sensor_type;location;lat;lon;timestamp;P1;durP1;ratioP1;P2;durP2;ratioP2
63499;SDS011;49654;51.142;14.924;2023-08-08T00:00:20;6.72;;;2.67;;
63499;SDS011;49654;51.142;14.924;2023-08-08T00:02:47;8.50;;;2.63;;
63499;SDS011;49654;51.142;14.924;2023-08-08T00:05:14;5.00;;;2.70;;
63499;SDS011;49654;51.142;14.924;2023-08-08T00:07:41;5.13;;;2.70;;
63499;SDS011;49654;51.142;14.924;2023-08-08T00:10:08;4.85;;;2.60;;
63499;SDS011;49654;51.142;14.924;2023-08-08T00:12:37;8.43;;;3.05;;
63499;SDS011;49654;51.142;14.924;2023-08-08T00:15:04;6.47;;;2.58;;
63499;SDS011;49654;51.142;14.924;2023-08-08T00:17:32;5.57;;;2.33;;
63499;SDS011;49654;51.142;14.924;2023-08-08T00:19:59;6.82;;;2.63;;
63499;SDS011;49654;51.142;14.924;2023-08-08T00:22:26;6.13;;;2.78;;
63499;SDS011;49654;51.142;14.924;2023-08-08T00:24:53;5.53;;;2.65;;
63499;SDS011;49654;51.142;14.924;2023-08-08T00:27:20;6.80;;;2.40;;
63499;SDS011;49654;51.142;14.924;2023-08-08T00:29:48;8.80;;;2.78;;
63499;SDS011;49654;51.142;14.924;2023-08-08T00:32:16;5.95;;;2.38;;
63499;SDS011;49654;51.142;14.924;2023-08-08T00:34:43;5.93;;;2.75;;
63499;SDS011;49654;51.142;14.924;2023-08-08T00:37:10;4.88;;;2.50;;
63499;SDS011;49654;51.142;14.924;2023-08-08T00:39:37;6.32;;;2.55;;
63499;SDS011;49654;51.142;14.924;2023-08-08T00:42:05;5.43;;;2.53;;
63499;SDS011;49654;51.142;14.924;2023-08-08T00:44:32;5.78;;;2.90;;
63499;SDS011;49654;51.142;14.924;2023-08-08T00:47:00;7.40;;;2.55;;
63499;SDS011;49654;51.142;14.924;2023-08-08T00:49:27;7.65;;;2.42;;
63499;SDS011;49654;51.142;14.924;2023-08-08T00:51:54;6.18;;;2.47;;
63499;SDS011;49654;51.142;14.924;2023-08-08T00:54:21;8.55;;;2.60;;
63499;SDS011;49654;51.142;14.924;2023-08-08T00:56:48;4.63;;;2.40;;
63499;SDS011;49654;51.142;14.924;2023-08-08T00:59:15;5.85;;;2.60;;
63499;SDS011;49654;51.142;14.924;2023-08-08T01:01:45;4.88;;;2.40;;
63499;SDS011;49654;51.142;14.924;2023-08-08T01:04:13;4.80;;;2.17;;
63499;SDS011;49654;51.142;14.924;2023-08-08T01:06:42;6.65;;;2.65;;
63499;SDS011;49654;51.142;14.924;2023-08-08T01:09:18;6.03;;;3.00;;
63499;SDS011;49654;51.142;14.924;2023-08-08T01:11:50;4.60;;;2.40;;
63499;SDS011;49654;51.142;14.924;2023-08-08T01:14:19;8.43;;;2.50;;
63499;SDS011;49654;51.142;14.924;2023-08-08T01:16:50;4.57;;;2.55;;
63499;SDS011;49654;51.142;14.924;2023-08-08T01:19:21;6.32;;;2.80;;
63499;SDS011;49654;51.142;14.924;2023-08-08T01:21:52;5.38;;;2.30;;
63499;SDS011;49654;51.142;14.924;2023-08-08T01:24:22;6.93;;;2.58;;
63499;SDS011;49654;51.142;14.924;2023-08-08T01:26:51;5.13;;;2.55;;
63499;SDS011;49654;51.142;14.924;2023-08-08T01:29:18;5.70;;;2.70;;
63499;SDS011;49654;51.142;14.924;2023-08-08T01:31:45;6.82;;;2.63;;
63499;SDS011;49654;51.142;14.924;2023-08-08T01:34:12;5.25;;;2.55;;
63499;SDS011;49654;51.142;14.924;2023-08-08T01:36:42;7.97;;;2.72;;
63499;SDS011;49654;51.142;14.924;2023-08-08T01:39:17;10.15;;;2.85;;
63499;SDS011;49654;51.142;14.924;2023-08-08T01:41:48;5.70;;;2.70;;
63499;SDS011;49654;51.142;14.924;2023-08-08T01:44:16;5.93;;;2.53;;
63499;SDS011;49654;51.142;14.924;2023-08-08T01:46:44;5.95;;;2.10;;
63499;SDS011;49654;51.142;14.924;2023-08-08T01:49:12;5.30;;;2.58;;
63499;SDS011;49654;51.142;14.924;2023-08-08T01:51:39;5.43;;;2.40;;
63499;SDS011;49654;51.142;14.924;2023-08-08T01:54:06;5.20;;;2.53;;
63499;SDS011;49654;51.142;14.924;2023-08-08T01:56:33;4.20;;;2.40;;
63499;SDS011;49654;51.142;14.924;2023-08-08T01:59:01;7.90;;;2.83;;
63499;SDS011;49654;51.142;14.924;2023-08-08T02:01:28;6.00;;;2.50;;
63499;SDS011;49654;51.142;14.924;2023-08-08T02:03:55;4.97;;;2.20;;
63499;SDS011;49654;51.142;14.924;2023-08-08T02:06:22;7.13;;;2.60;;
63499;SDS011;49654;51.142;14.924;2023-08-08T02:08:49;4.32;;;2.63;;
63499;SDS011;49654;51.142;14.924;2023-08-08T02:11:16;6.00;;;2.50;;
63499;SDS011;49654;51.142;14.924;2023-08-08T02:13:43;7.10;;;2.47;;
63499;SDS011;49654;51.142;14.924;2023-08-08T02:16:11;12.32;;;3.25;;
63499;SDS011;49654;51.142;14.924;2023-08-08T02:18:38;11.98;;;4.03;;
63499;SDS011;49654;51.142;14.924;2023-08-08T02:21:06;6.85;;;2.72;;
63499;SDS011;49654;51.142;14.924;2023-08-08T02:23:34;4.63;;;2.45;;
63499;SDS011;49654;51.142;14.924;2023-08-08T02:26:01;6.85;;;2.42;;
63499;SDS011;49654;51.142;14.924;2023-08-08T02:28:28;7.22;;;2.97;;
63499;SDS011;49654;51.142;14.924;2023-08-08T02:30:55;5.75;;;2.65;;
63499;SDS011;49654;51.142;14.924;2023-08-08T02:33:24;4.28;;;2.40;;
63499;SDS011;49654;51.142;14.924;2023-08-08T02:35:51;4.50;;;2.50;;
63499;SDS011;49654;51.142;14.924;2023-08-08T02:38:18;8.32;;;2.85;;
63499;SDS011;49654;51.142;14.924;2023-08-08T02:40:45;4.05;;;3.03;;
63499;SDS011;49654;51.142;14.924;2023-08-08T02:43:12;5.00;;;2.70;;
63499;SDS011;49654;51.142;14.924;2023-08-08T02:45:39;6.10;;;2.92;;
63499;SDS011;49654;51.142;14.924;2023-08-08T02:48:06;6.13;;;2.70;;
63499;SDS011;49654;51.142;14.924;2023-08-08T02:50:34;6.55;;;2.63;;
63499;SDS011;49654;51.142;14.924;2023-08-08T02:53:01;4.85;;;2.47;;
63499;SDS011;49654;51.142;14.924;2023-08-08T02:55:28;6.10;;;2.63;;
63499;SDS011;49654;51.142;14.924;2023-08-08T02:57:55;7.88;;;3.13;;
63499;SDS011;49654;51.142;14.924;2023-08-08T03:00:22;5.15;;;2.70;;
63499;SDS011;49654;51.142;14.924;2023-08-08T03:02:49;7.70;;;3.13;;
63499;SDS011;49654;51.142;14.924;2023-08-08T03:05:16;4.13;;;2.30;;
63499;SDS011;49654;51.142;14.924;2023-08-08T03:07:45;11.27;;;2.80;;
63499;SDS011;49654;51.142;14.924;2023-08-08T03:10:12;4.35;;;2.55;;
63499;SDS011;49654;51.142;14.924;2023-08-08T03:12:39;8.20;;;2.42;;
63499;SDS011;49654;51.142;14.924;2023-08-08T03:15:07;6.38;;;3.38;;
63499;SDS011;49654;51.142;14.924;2023-08-08T03:17:36;5.88;;;2.60;;
63499;SDS011;49654;51.142;14.924;2023-08-08T03:20:03;5.72;;;2.58;;
63499;SDS011;49654;51.142;14.924;2023-08-08T03:22:32;5.88;;;2.50;;
63499;SDS011;49654;51.142;14.924;2023-08-08T03:25:00;5.13;;;2.38;;
63499;SDS011;49654;51.142;14.924;2023-08-08T03:27:29;6.15;;;2.67;;
63499;SDS011;49654;51.142;14.924;2023-08-08T03:29:56;7.63;;;2.75;;
63499;SDS011;49654;51.142;14.924;2023-08-08T03:32:23;7.35;;;2.67;;
63499;SDS011;49654;51.142;14.924;2023-08-08T03:34:50;5.65;;;2.50;;
63499;SDS011;49654;51.142;14.924;2023-08-08T03:37:17;5.15;;;3.55;;
63499;SDS011;49654;51.142;14.924;2023-08-08T03:39:44;5.75;;;3.05;;
63499;SDS011;49654;51.142;14.924;2023-08-08T03:42:13;7.68;;;2.67;;
63499;SDS011;49654;51.142;14.924;2023-08-08T03:44:40;8.73;;;2.60;;
63499;SDS011;49654;51.142;14.924;2023-08-08T03:47:07;6.05;;;2.47;;
63499;SDS011;49654;51.142;14.924;2023-08-08T03:49:34;5.38;;;2.53;;
63499;SDS011;49654;51.142;14.924;2023-08-08T03:52:01;6.07;;;3.00;;
63499;SDS011;49654;51.142;14.924;2023-08-08T03:54:28;3.70;;;2.42;;
63499;SDS011;49654;51.142;14.924;2023-08-08T03:56:55;3.97;;;2.58;;
63499;SDS011;49654;51.142;14.924;2023-08-08T03:59:24;4.40;;;2.70;;
63499;SDS011;49654;51.142;14.924;2023-08-08T04:01:51;5.80;;;2.50;;
63499;SDS011;49654;51.142;14.924;2023-08-08T04:04:18;5.45;;;2.42;;
63499;SDS011;49654;51.142;14.924;2023-08-08T04:06:45;6.07;;;2.55;;
63499;SDS011;49654;51.142;14.924;2023-08-08T04:09:12;6.57;;;2.78;;
63499;SDS011;49654;51.142;14.924;2023-08-08T04:11:40;10.10;;;2.97;;
63499;SDS011;49654;51.142;14.924;2023-08-08T04:14:07;6.78;;;2.70;;
63499;SDS011;49654;51.142;14.924;2023-08-08T04:16:35;7.43;;;2.75;;
63499;SDS011;49654;51.142;14.924;2023-08-08T04:19:02;7.13;;;2.60;;
63499;SDS011;49654;51.142;14.924;2023-08-08T04:21:30;4.65;;;2.53;;
63499;SDS011;49654;51.142;14.924;2023-08-08T04:23:57;19.00;;;4.65;;
63499;SDS011;49654;51.142;14.924;2023-08-08T04:26:25;5.40;;;2.60;;
63499;SDS011;49654;51.142;14.924;2023-08-08T04:28:52;6.35;;;2.85;;
63499;SDS011;49654;51.142;14.924;2023-08-08T04:31:19;5.28;;;2.45;;
63499;SDS011;49654;51.142;14.924;2023-08-08T04:33:47;5.95;;;2.80;;
63499;SDS011;49654;51.142;14.924;2023-08-08T04:36:14;3.25;;;2.38;;
63499;SDS011;49654;51.142;14.924;2023-08-08T04:38:42;4.82;;;2.80;;
63499;SDS011;49654;51.142;14.924;2023-08-08T04:41:09;5.57;;;2.78;;
63499;SDS011;49654;51.142;14.924;2023-08-08T04:43:36;8.38;;;3.08;;
63499;SDS011;49654;51.142;14.924;2023-08-08T04:46:03;6.25;;;2.65;;
63499;SDS011;49654;51.142;14.924;2023-08-08T04:48:30;4.15;;;2.45;;
63499;SDS011;49654;51.142;14.924;2023-08-08T04:50:59;4.25;;;2.53;;
63499;SDS011;49654;51.142;14.924;2023-08-08T04:53:26;6.75;;;3.08;;
63499;SDS011;49654;51.142;14.924;2023-08-08T04:55:53;4.53;;;2.33;;
63499;SDS011;49654;51.142;14.924;2023-08-08T04:58:20;5.18;;;2.70;;
63499;SDS011;49654;51.142;14.924;2023-08-08T05:00:48;4.72;;;2.85;;
63499;SDS011;49654;51.142;14.924;2023-08-08T05:03:16;5.95;;;2.60;;
63499;SDS011;49654;51.142;14.924;2023-08-08T05:05:43;8.07;;;2.80;;
63499;SDS011;49654;51.142;14.924;2023-08-08T05:08:12;4.00;;;2.80;;
63499;SDS011;49654;51.142;14.924;2023-08-08T05:10:40;5.03;;;2.83;;
63499;SDS011;49654;51.142;14.924;2023-08-08T05:13:07;4.80;;;2.60;;
63499;SDS011;49654;51.142;14.924;2023-08-08T05:15:36;8.40;;;2.65;;
63499;SDS011;49654;51.142;14.924;2023-08-08T05:18:03;5.35;;;2.45;;
63499;SDS011;49654;51.142;14.924;2023-08-08T05:20:31;5.03;;;2.17;;
63499;SDS011;49654;51.142;14.924;2023-08-08T05:22:58;5.00;;;2.70;;
63499;SDS011;49654;51.142;14.924;2023-08-08T05:25:27;4.80;;;2.40;;
63499;SDS011;49654;51.142;14.924;2023-08-08T05:27:54;4.55;;;2.45;;
63499;SDS011;49654;51.142;14.924;2023-08-08T05:30:21;6.15;;;2.58;;
63499;SDS011;49654;51.142;14.924;2023-08-08T05:32:48;4.60;;;2.53;;
63499;SDS011;49654;51.142;14.924;2023-08-08T05:35:15;3.20;;;2.20;;
63499;SDS011;49654;51.142;14.924;2023-08-08T05:37:43;3.45;;;2.00;;
63499;SDS011;49654;51.142;14.924;2023-08-08T05:40:10;5.20;;;2.67;;
63499;SDS011;49654;51.142;14.924;2023-08-08T05:42:39;4.10;;;2.47;;
63499;SDS011;49654;51.142;14.924;2023-08-08T05:45:07;3.97;;;2.40;;
63499;SDS011;49654;51.142;14.924;2023-08-08T05:47:34;2.70;;;2.00;;
63499;SDS011;49654;51.142;14.924;2023-08-08T05:50:02;3.65;;;2.05;;
63499;SDS011;49654;51.142;14.924;2023-08-08T05:52:29;5.90;;;2.35;;
63499;SDS011;49654;51.142;14.924;2023-08-08T05:54:56;4.80;;;2.28;;
63499;SDS011;49654;51.142;14.924;2023-08-08T05:57:25;4.38;;;2.50;;
63499;SDS011;49654;51.142;14.924;2023-08-08T05:59:54;5.32;;;2.00;;
63499;SDS011;49654;51.142;14.924;2023-08-08T06:02:21;5.05;;;2.20;;
63499;SDS011;49654;51.142;14.924;2023-08-08T06:04:48;4.28;;;2.20;;
63499;SDS011;49654;51.142;14.924;2023-08-08T06:07:16;3.45;;;1.90;;
63499;SDS011;49654;51.142;14.924;2023-08-08T06:09:43;4.38;;;1.98;;
63499;SDS011;49654;51.142;14.924;2023-08-08T06:12:10;6.47;;;2.20;;
63499;SDS011;49654;51.142;14.924;2023-08-08T06:14:37;3.90;;;2.22;;
63499;SDS011;49654;51.142;14.924;2023-08-08T06:17:05;4.93;;;1.98;;
63499;SDS011;49654;51.142;14.924;2023-08-08T06:19:32;3.35;;;2.05;;
63499;SDS011;49654;51.142;14.924;2023-08-08T06:21:59;3.85;;;2.20;;
63499;SDS011;49654;51.142;14.924;2023-08-08T06:24:28;2.47;;;1.95;;
63499;SDS011;49654;51.142;14.924;2023-08-08T06:26:56;3.17;;;1.95;;
63499;SDS011;49654;51.142;14.924;2023-08-08T06:29:23;3.97;;;2.10;;
63499;SDS011;49654;51.142;14.924;2023-08-08T06:31:50;3.28;;;2.00;;
63499;SDS011;49654;51.142;14.924;2023-08-08T06:34:18;4.05;;;2.05;;
63499;SDS011;49654;51.142;14.924;2023-08-08T06:36:45;4.25;;;2.03;;
63499;SDS011;49654;51.142;14.924;2023-08-08T06:39:13;3.72;;;2.10;;
63499;SDS011;49654;51.142;14.924;2023-08-08T06:41:40;4.97;;;2.00;;
63499;SDS011;49654;51.142;14.924;2023-08-08T06:44:07;5.00;;;2.10;;
63499;SDS011;49654;51.142;14.924;2023-08-08T06:46:35;2.50;;;1.85;;
63499;SDS011;49654;51.142;14.924;2023-08-08T06:49:03;3.50;;;2.03;;
63499;SDS011;49654;51.142;14.924;2023-08-08T06:51:37;5.32;;;2.08;;
63499;SDS011;49654;51.142;14.924;2023-08-08T06:54:04;5.00;;;2.10;;
63499;SDS011;49654;51.142;14.924;2023-08-08T06:56:31;1.90;;;1.55;;
63499;SDS011;49654;51.142;14.924;2023-08-08T06:58:58;5.60;;;1.75;;
63499;SDS011;49654;51.142;14.924;2023-08-08T07:01:25;2.90;;;1.73;;
63499;SDS011;49654;51.142;14.924;2023-08-08T07:03:52;3.78;;;1.75;;
63499;SDS011;49654;51.142;14.924;2023-08-08T07:06:19;3.92;;;1.95;;
63499;SDS011;49654;51.142;14.924;2023-08-08T07:08:47;4.47;;;2.03;;
63499;SDS011;49654;51.142;14.924;2023-08-08T07:11:14;2.13;;;1.65;;
63499;SDS011;49654;51.142;14.924;2023-08-08T07:13:42;2.78;;;1.58;;
63499;SDS011;49654;51.142;14.924;2023-08-08T07:16:09;5.53;;;1.70;;
63499;SDS011;49654;51.142;14.924;2023-08-08T07:18:36;2.22;;;2.00;;
63499;SDS011;49654;51.142;14.924;2023-08-08T07:21:03;3.28;;;1.85;;
63499;SDS011;49654;51.142;14.924;2023-08-08T07:23:31;2.95;;;1.77;;
63499;SDS011;49654;51.142;14.924;2023-08-08T07:25:59;4.25;;;1.65;;
63499;SDS011;49654;51.142;14.924;2023-08-08T07:28:26;3.03;;;1.90;;
63499;SDS011;49654;51.142;14.924;2023-08-08T07:30:54;2.20;;;1.80;;
63499;SDS011;49654;51.142;14.924;2023-08-08T07:33:21;3.10;;;1.75;;
63499;SDS011;49654;51.142;14.924;2023-08-08T07:35:48;2.88;;;1.90;;
63499;SDS011;49654;51.142;14.924;2023-08-08T07:38:15;7.10;;;1.67;;
63499;SDS011;49654;51.142;14.924;2023-08-08T07:40:42;3.28;;;1.60;;
63499;SDS011;49654;51.142;14.924;2023-08-08T07:43:10;2.53;;;1.55;;
63499;SDS011;49654;51.142;14.924;2023-08-08T07:45:37;3.70;;;2.10;;
63499;SDS011;49654;51.142;14.924;2023-08-08T07:48:05;3.90;;;1.95;;
63499;SDS011;49654;51.142;14.924;2023-08-08T07:50:32;2.42;;;1.73;;
63499;SDS011;49654;51.142;14.924;2023-08-08T07:52:59;2.75;;;1.80;;
63499;SDS011;49654;51.142;14.924;2023-08-08T07:55:26;4.25;;;1.80;;
63499;SDS011;49654;51.142;14.924;2023-08-08T07:57:53;3.38;;;1.98;;
63499;SDS011;49654;51.142;14.924;2023-08-08T08:00:22;2.15;;;1.50;;
63499;SDS011;49654;51.142;14.924;2023-08-08T08:02:51;2.85;;;1.60;;
63499;SDS011;49654;51.142;14.924;2023-08-08T08:05:18;4.68;;;2.00;;
63499;SDS011;49654;51.142;14.924;2023-08-08T08:07:45;2.97;;;1.67;;
63499;SDS011;49654;51.142;14.924;2023-08-08T08:10:12;3.78;;;1.80;;
63499;SDS011;49654;51.142;14.924;2023-08-08T08:12:41;3.08;;;1.98;;
63499;SDS011;49654;51.142;14.924;2023-08-08T08:15:09;5.50;;;1.98;;
63499;SDS011;49654;51.142;14.924;2023-08-08T08:17:38;3.72;;;1.70;;
63499;SDS011;49654;51.142;14.924;2023-08-08T08:20:05;3.72;;;2.05;;
63499;SDS011;49654;51.142;14.924;2023-08-08T08:22:36;3.92;;;1.85;;
63499;SDS011;49654;51.142;14.924;2023-08-08T08:25:04;2.92;;;1.58;;
63499;SDS011;49654;51.142;14.924;2023-08-08T08:27:33;4.15;;;1.95;;
63499;SDS011;49654;51.142;14.924;2023-08-08T08:30:00;1.77;;;1.50;;
63499;SDS011;49654;51.142;14.924;2023-08-08T08:32:31;4.85;;;2.10;;
63499;SDS011;49654;51.142;14.924;2023-08-08T08:35:01;2.08;;;1.88;;
63499;SDS011;49654;51.142;14.924;2023-08-08T08:37:29;2.58;;;1.65;;
63499;SDS011;49654;51.142;14.924;2023-08-08T08:39:56;3.08;;;1.92;;
63499;SDS011;49654;51.142;14.924;2023-08-08T08:42:23;3.53;;;1.85;;
63499;SDS011;49654;51.142;14.924;2023-08-08T08:44:50;2.45;;;1.90;;
63499;SDS011;49654;51.142;14.924;2023-08-08T08:47:19;3.50;;;1.80;;
63499;SDS011;49654;51.142;14.924;2023-08-08T08:49:48;3.83;;;2.03;;
63499;SDS011;49654;51.142;14.924;2023-08-08T08:52:16;3.25;;;1.83;;
63499;SDS011;49654;51.142;14.924;2023-08-08T08:54:44;3.85;;;2.17;;
63499;SDS011;49654;51.142;14.924;2023-08-08T08:57:11;2.92;;;1.65;;
63499;SDS011;49654;51.142;14.924;2023-08-08T08:59:39;2.17;;;1.63;;
63499;SDS011;49654;51.142;14.924;2023-08-08T09:02:06;2.40;;;1.90;;
63499;SDS011;49654;51.142;14.924;2023-08-08T09:04:34;2.70;;;1.50;;
63499;SDS011;49654;51.142;14.924;2023-08-08T09:07:01;3.83;;;1.65;;
63499;SDS011;49654;51.142;14.924;2023-08-08T09:09:33;5.47;;;1.90;;
63499;SDS011;49654;51.142;14.924;2023-08-08T09:12:02;4.70;;;1.90;;
63499;SDS011;49654;51.142;14.924;2023-08-08T09:14:30;2.35;;;1.50;;
63499;SDS011;49654;51.142;14.924;2023-08-08T09:16:57;2.60;;;1.60;;
63499;SDS011;49654;51.142;14.924;2023-08-08T09:19:24;2.88;;;1.80;;
63499;SDS011;49654;51.142;14.924;2023-08-08T09:21:52;2.92;;;1.60;;
63499;SDS011;49654;51.142;14.924;2023-08-08T09:24:19;1.98;;;1.77;;
63499;SDS011;49654;51.142;14.924;2023-08-08T09:26:48;4.22;;;1.90;;
63499;SDS011;49654;51.142;14.924;2023-08-08T09:29:15;2.20;;;1.70;;
63499;SDS011;49654;51.142;14.924;2023-08-08T09:31:43;4.30;;;1.83;;
63499;SDS011;49654;51.142;14.924;2023-08-08T09:34:12;2.53;;;1.70;;
63499;SDS011;49654;51.142;14.924;2023-08-08T09:36:40;2.42;;;1.65;;
63499;SDS011;49654;51.142;14.924;2023-08-08T09:39:07;2.30;;;1.65;;
63499;SDS011;49654;51.142;14.924;2023-08-08T09:41:34;3.22;;;2.70;;
63499;SDS011;49654;51.142;14.924;2023-08-08T09:44:03;6.43;;;1.83;;
63499;SDS011;49654;51.142;14.924;2023-08-08T09:46:30;3.85;;;1.73;;
63499;SDS011;49654;51.142;14.924;2023-08-08T09:48:58;3.30;;;1.92;;
63499;SDS011;49654;51.142;14.924;2023-08-08T09:51:26;2.75;;;1.60;;
63499;SDS011;49654;51.142;14.924;2023-08-08T09:53:55;4.60;;;1.65;;
63499;SDS011;49654;51.142;14.924;2023-08-08T09:56:23;2.88;;;1.80;;
63499;SDS011;49654;51.142;14.924;2023-08-08T09:58:51;1.90;;;1.70;;
63499;SDS011;49654;51.142;14.924;2023-08-08T10:01:20;3.22;;;1.60;;
63499;SDS011;49654;51.142;14.924;2023-08-08T10:03:47;2.78;;;1.80;;
63499;SDS011;49654;51.142;14.924;2023-08-08T10:06:15;2.45;;;1.48;;
63499;SDS011;49654;51.142;14.924;2023-08-08T10:08:42;6.38;;;2.00;;
63499;SDS011;49654;51.142;14.924;2023-08-08T10:11:09;3.15;;;1.88;;
63499;SDS011;49654;51.142;14.924;2023-08-08T10:13:37;2.65;;;1.63;;
63499;SDS011;49654;51.142;14.924;2023-08-08T10:16:07;1.90;;;1.50;;
63499;SDS011;49654;51.142;14.924;2023-08-08T10:18:36;3.92;;;1.52;;
63499;SDS011;49654;51.142;14.924;2023-08-08T10:21:03;3.83;;;1.80;;
63499;SDS011;49654;51.142;14.924;2023-08-08T10:23:35;1.73;;;1.60;;
63499;SDS011;49654;51.142;14.924;2023-08-08T10:26:03;2.65;;;1.70;;
63499;SDS011;49654;51.142;14.924;2023-08-08T10:28:31;6.15;;;1.70;;
63499;SDS011;49654;51.142;14.924;2023-08-08T10:31:00;2.50;;;1.90;;
63499;SDS011;49654;51.142;14.924;2023-08-08T10:33:40;3.80;;;1.92;;
63499;SDS011;49654;51.142;14.924;2023-08-08T10:36:08;3.33;;;1.77;;
63499;SDS011;49654;51.142;14.924;2023-08-08T10:38:39;3.47;;;1.77;;
63499;SDS011;49654;51.142;14.924;2023-08-08T10:41:09;2.92;;;1.80;;
63499;SDS011;49654;51.142;14.924;2023-08-08T10:43:36;3.53;;;2.05;;
63499;SDS011;49654;51.142;14.924;2023-08-08T10:46:04;2.35;;;1.60;;
63499;SDS011;49654;51.142;14.924;2023-08-08T10:48:32;3.08;;;1.73;;
63499;SDS011;49654;51.142;14.924;2023-08-08T10:51:00;2.35;;;1.80;;
63499;SDS011;49654;51.142;14.924;2023-08-08T10:53:28;1.77;;;1.52;;
63499;SDS011;49654;51.142;14.924;2023-08-08T10:55:58;4.55;;;1.90;;
63499;SDS011;49654;51.142;14.924;2023-08-08T10:58:36;2.72;;;1.50;;
63499;SDS011;49654;51.142;14.924;2023-08-08T11:01:04;1.70;;;1.48;;
63499;SDS011;49654;51.142;14.924;2023-08-08T11:03:35;2.20;;;1.60;;
63499;SDS011;49654;51.142;14.924;2023-08-08T11:06:04;2.60;;;1.85;;
63499;SDS011;49654;51.142;14.924;2023-08-08T11:08:32;1.98;;;1.70;;
63499;SDS011;49654;51.142;14.924;2023-08-08T11:11:00;3.78;;;1.50;;
63499;SDS011;49654;51.142;14.924;2023-08-08T11:13:27;2.47;;;1.58;;
63499;SDS011;49654;51.142;14.924;2023-08-08T11:15:55;3.38;;;1.60;;
63499;SDS011;49654;51.142;14.924;2023-08-08T11:18:22;5.13;;;1.83;;
63499;SDS011;49654;51.142;14.924;2023-08-08T11:20:49;3.15;;;1.58;;
63499;SDS011;49654;51.142;14.924;2023-08-08T11:23:18;2.35;;;1.70;;
63499;SDS011;49654;51.142;14.924;2023-08-08T11:25:46;2.50;;;1.83;;
63499;SDS011;49654;51.142;14.924;2023-08-08T11:28:14;5.50;;;1.75;;
63499;SDS011;49654;51.142;14.924;2023-08-08T11:30:42;2.88;;;1.40;;
63499;SDS011;49654;51.142;14.924;2023-08-08T11:33:12;2.80;;;1.45;;
63499;SDS011;49654;51.142;14.924;2023-08-08T11:35:43;2.65;;;1.70;;
63499;SDS011;49654;51.142;14.924;2023-08-08T11:38:14;2.90;;;1.73;;
63499;SDS011;49654;51.142;14.924;2023-08-08T11:40:44;2.85;;;1.80;;
63499;SDS011;49654;51.142;14.924;2023-08-08T11:43:11;3.83;;;1.67;;
63499;SDS011;49654;51.142;14.924;2023-08-08T11:45:39;2.45;;;1.73;;
63499;SDS011;49654;51.142;14.924;2023-08-08T11:48:07;3.00;;;1.67;;
63499;SDS011;49654;51.142;14.924;2023-08-08T11:50:36;3.03;;;1.77;;
63499;SDS011;49654;51.142;14.924;2023-08-08T11:53:04;3.55;;;1.70;;
63499;SDS011;49654;51.142;14.924;2023-08-08T11:55:32;2.33;;;1.80;;
63499;SDS011;49654;51.142;14.924;2023-08-08T11:58:01;2.35;;;1.60;;
63499;SDS011;49654;51.142;14.924;2023-08-08T12:00:28;3.60;;;2.00;;
63499;SDS011;49654;51.142;14.924;2023-08-08T12:02:56;3.10;;;1.88;;
63499;SDS011;49654;51.142;14.924;2023-08-08T12:05:24;2.85;;;1.88;;
63499;SDS011;49654;51.142;14.924;2023-08-08T12:07:51;4.53;;;2.45;;
63499;SDS011;49654;51.142;14.924;2023-08-08T12:10:19;3.47;;;1.90;;
63499;SDS011;49654;51.142;14.924;2023-08-08T12:12:52;4.18;;;2.20;;
63499;SDS011;49654;51.142;14.924;2023-08-08T12:15:21;3.80;;;1.85;;
63499;SDS011;49654;51.142;14.924;2023-08-08T12:17:48;3.03;;;2.10;;
63499;SDS011;49654;51.142;14.924;2023-08-08T12:20:16;5.97;;;1.88;;
63499;SDS011;49654;51.142;14.924;2023-08-08T12:22:43;6.68;;;1.80;;
63499;SDS011;49654;51.142;14.924;2023-08-08T12:25:10;2.35;;;1.83;;
63499;SDS011;49654;51.142;14.924;2023-08-08T12:27:38;4.22;;;1.95;;
63499;SDS011;49654;51.142;14.924;2023-08-08T12:30:06;3.83;;;1.83;;
63499;SDS011;49654;51.142;14.924;2023-08-08T12:32:35;2.28;;;1.60;;
63499;SDS011;49654;51.142;14.924;2023-08-08T12:35:02;2.92;;;1.80;;
63499;SDS011;49654;51.142;14.924;2023-08-08T12:37:30;2.78;;;1.75;;
63499;SDS011;49654;51.142;14.924;2023-08-08T12:39:57;5.50;;;1.60;;
63499;SDS011;49654;51.142;14.924;2023-08-08T12:42:25;3.97;;;1.83;;
63499;SDS011;49654;51.142;14.924;2023-08-08T12:44:52;3.53;;;1.80;;
63499;SDS011;49654;51.142;14.924;2023-08-08T12:47:20;4.05;;;1.70;;
63499;SDS011;49654;51.142;14.924;2023-08-08T12:49:48;2.58;;;1.77;;
63499;SDS011;49654;51.142;14.924;2023-08-08T12:52:15;5.05;;;2.00;;
63499;SDS011;49654;51.142;14.924;2023-08-08T12:54:42;2.25;;;1.70;;
63499;SDS011;49654;51.142;14.924;2023-08-08T12:57:09;3.40;;;1.67;;
63499;SDS011;49654;51.142;14.924;2023-08-08T12:59:36;3.13;;;1.77;;
63499;SDS011;49654;51.142;14.924;2023-08-08T13:02:03;3.40;;;1.70;;
63499;SDS011;49654;51.142;14.924;2023-08-08T13:04:30;3.75;;;2.10;;
63499;SDS011;49654;51.142;14.924;2023-08-08T13:06:59;5.60;;;1.80;;
63499;SDS011;49654;51.142;14.924;2023-08-08T13:09:26;2.72;;;1.48;;
63499;SDS011;49654;51.142;14.924;2023-08-08T13:11:54;2.90;;;1.80;;
63499;SDS011;49654;51.142;14.924;2023-08-08T13:14:21;2.97;;;1.70;;
63499;SDS011;49654;51.142;14.924;2023-08-08T13:16:48;2.60;;;1.75;;
63499;SDS011;49654;51.142;14.924;2023-08-08T13:19:15;2.20;;;1.55;;
63499;SDS011;49654;51.142;14.924;2023-08-08T13:21:45;4.03;;;1.50;;
63499;SDS011;49654;51.142;14.924;2023-08-08T13:24:13;4.97;;;1.60;;
63499;SDS011;49654;51.142;14.924;2023-08-08T13:26:40;3.67;;;1.85;;
63499;SDS011;49654;51.142;14.924;2023-08-08T13:29:07;5.90;;;2.00;;
63499;SDS011;49654;51.142;14.924;2023-08-08T13:31:35;3.25;;;1.52;;
63499;SDS011;49654;51.142;14.924;2023-08-08T13:34:02;1.63;;;1.45;;
63499;SDS011;49654;51.142;14.924;2023-08-08T13:36:30;2.63;;;1.50;;
63499;SDS011;49654;51.142;14.924;2023-08-08T13:38:57;3.13;;;1.65;;
63499;SDS011;49654;51.142;14.924;2023-08-08T13:41:26;3.67;;;1.90;;
63499;SDS011;49654;51.142;14.924;2023-08-08T13:43:53;2.55;;;1.50;;
63499;SDS011;49654;51.142;14.924;2023-08-08T13:49:21;3.17;;;1.65;;
63499;SDS011;49654;51.142;14.924;2023-08-08T13:51:51;3.22;;;1.50;;
63499;SDS011;49654;51.142;14.924;2023-08-08T13:54:19;2.13;;;1.60;;
63499;SDS011;49654;51.142;14.924;2023-08-08T13:56:47;2.53;;;1.60;;
63499;SDS011;49654;51.142;14.924;2023-08-08T13:59:14;5.07;;;1.80;;
63499;SDS011;49654;51.142;14.924;2023-08-08T14:01:42;4.45;;;1.52;;
63499;SDS011;49654;51.142;14.924;2023-08-08T14:04:09;2.90;;;1.50;;
63499;SDS011;49654;51.142;14.924;2023-08-08T14:06:36;2.08;;;1.73;;
63499;SDS011;49654;51.142;14.924;2023-08-08T14:09:03;3.03;;;1.52;;
63499;SDS011;49654;51.142;14.924;2023-08-08T14:11:31;3.42;;;1.67;;
63499;SDS011;49654;51.142;14.924;2023-08-08T14:13:59;3.25;;;1.73;;
63499;SDS011;49654;51.142;14.924;2023-08-08T14:16:26;2.10;;;1.80;;
63499;SDS011;49654;51.142;14.924;2023-08-08T14:18:53;3.15;;;1.70;;
63499;SDS011;49654;51.142;14.924;2023-08-08T14:21:20;1.58;;;1.42;;
63499;SDS011;49654;51.142;14.924;2023-08-08T14:23:47;2.05;;;1.60;;
63499;SDS011;49654;51.142;14.924;2023-08-08T14:26:14;2.47;;;1.55;;
63499;SDS011;49654;51.142;14.924;2023-08-08T14:28:41;2.30;;;1.50;;
63499;SDS011;49654;51.142;14.924;2023-08-08T14:31:09;2.17;;;1.80;;
63499;SDS011;49654;51.142;14.924;2023-08-08T14:33:36;1.88;;;1.50;;
63499;SDS011;49654;51.142;14.924;2023-08-08T14:36:03;1.65;;;1.55;;
63499;SDS011;49654;51.142;14.924;2023-08-08T14:38:33;1.73;;;1.40;;